createdAt,value
2022-12-08T00:00:07.397Z,607.96
2022-12-08T00:00:17.415Z,607.82
2022-12-08T00:00:27.423Z,607.80
2022-12-08T00:00:37.403Z,607.83
2022-12-08T00:00:47.407Z,607.80
2022-12-08T00:00:57.433Z,607.83
2022-12-08T00:01:07.409Z,607.87
2022-12-08T00:01:17.415Z,607.75
2022-12-08T00:01:27.409Z,607.71
2022-12-08T00:01:37.478Z,607.76
2022-12-08T00:01:47.520Z,607.90
2022-12-08T00:01:57.562Z,607.89
2022-12-08T00:02:07.527Z,607.64
2022-12-08T00:02:17.529Z,607.74
2022-12-08T00:02:27.574Z,608.07
2022-12-08T00:02:37.549Z,608.19
2022-12-08T00:02:47.538Z,608.03
2022-12-08T00:02:57.830Z,607.96
2022-12-08T00:03:07.563Z,608.20
2022-12-08T00:03:17.602Z,608.16
2022-12-08T00:03:27.582Z,608.05
2022-12-08T00:03:37.501Z,607.87
2022-12-08T00:03:47.427Z,607.84
2022-12-08T00:03:57.425Z,607.69
2022-12-08T00:04:07.429Z,607.67
2022-12-08T00:04:17.429Z,608.04
2022-12-08T00:04:27.433Z,608.06
2022-12-08T00:04:37.431Z,608.06
2022-12-08T00:04:47.417Z,608.03
2022-12-08T00:04:57.430Z,607.90
2022-12-08T00:05:07.434Z,607.91
2022-12-08T00:05:17.448Z,607.93
2022-12-08T00:05:27.436Z,607.93
2022-12-08T00:05:37.437Z,608.02
2022-12-08T00:05:47.438Z,608.09
2022-12-08T00:05:57.444Z,608.07
2022-12-08T00:06:07.440Z,608.03
2022-12-08T00:06:17.439Z,608.00
2022-12-08T00:06:27.445Z,608.03
2022-12-08T00:06:37.440Z,608.26
2022-12-08T00:06:47.442Z,608.29
2022-12-08T00:06:57.443Z,608.31
2022-12-08T00:07:07.445Z,608.53
2022-12-08T00:07:17.452Z,608.49
2022-12-08T00:07:27.449Z,608.38
2022-12-08T00:07:37.501Z,608.37
2022-12-08T00:07:47.537Z,608.53
2022-12-08T00:07:57.469Z,608.58
2022-12-08T00:08:07.539Z,608.53
2022-12-08T00:08:17.511Z,608.47
2022-12-08T00:08:27.466Z,608.61
2022-12-08T00:08:37.437Z,608.53
2022-12-08T00:08:47.456Z,608.41
2022-12-08T00:08:57.453Z,608.50
2022-12-08T00:09:07.458Z,608.71
2022-12-08T00:09:17.458Z,608.84
2022-12-08T00:09:27.470Z,608.84
2022-12-08T00:09:39.322Z,608.78
2022-12-08T00:09:47.459Z,608.81
2022-12-08T00:09:57.459Z,608.89
2022-12-08T00:10:39.872Z,609.01
2022-12-08T00:10:47.315Z,609.11
2022-12-08T00:10:48.333Z,609.08
2022-12-08T00:10:49.053Z,609.08
2022-12-08T00:10:49.985Z,609.05
2022-12-08T00:10:57.463Z,608.96
2022-12-08T00:11:07.467Z,608.97
2022-12-08T00:11:17.470Z,609.14
2022-12-08T00:11:27.468Z,609.15
2022-12-08T00:11:37.468Z,609.11
2022-12-08T00:11:47.467Z,609.15
2022-12-08T00:11:57.470Z,609.20
2022-12-08T00:12:07.469Z,609.17
2022-12-08T00:12:17.473Z,609.15
2022-12-08T00:12:27.475Z,609.25
2022-12-08T00:12:37.482Z,609.34
2022-12-08T00:12:47.479Z,609.36
2022-12-08T00:12:57.478Z,609.42
2022-12-08T00:13:07.479Z,609.42
2022-12-08T00:13:17.479Z,609.48
2022-12-08T00:13:27.481Z,609.59
2022-12-08T00:13:37.480Z,609.71
2022-12-08T00:13:47.483Z,609.63
2022-12-08T00:13:57.481Z,609.52
2022-12-08T00:14:07.483Z,609.54
2022-12-08T00:14:17.486Z,609.69
2022-12-08T00:14:27.483Z,609.65
2022-12-08T00:14:37.482Z,609.70
2022-12-08T00:14:47.489Z,609.71
2022-12-08T00:14:57.486Z,609.74
2022-12-08T00:15:07.493Z,609.90
2022-12-08T00:15:17.502Z,609.82
2022-12-08T00:15:27.489Z,609.99
2022-12-08T00:15:37.499Z,610.01
2022-12-08T00:15:47.491Z,610.07
2022-12-08T00:15:57.492Z,610.08
2022-12-08T00:16:07.540Z,610.13
2022-12-08T00:16:17.528Z,610.22
2022-12-08T00:16:27.540Z,610.27
2022-12-08T00:16:37.538Z,610.36
2022-12-08T00:16:47.527Z,610.44
2022-12-08T00:16:57.611Z,610.42
2022-12-08T00:17:07.546Z,610.46
2022-12-08T00:17:17.495Z,610.62
2022-12-08T00:17:27.497Z,610.72
2022-12-08T00:17:37.496Z,610.76
2022-12-08T00:17:47.499Z,610.70
2022-12-08T00:17:57.501Z,610.59
2022-12-08T00:18:07.503Z,610.76
2022-12-08T00:18:17.506Z,610.90
2022-12-08T00:18:27.502Z,610.74
2022-12-08T00:18:37.503Z,610.59
2022-12-08T00:18:47.509Z,610.67
2022-12-08T00:18:57.508Z,610.70
2022-12-08T00:19:07.506Z,610.61
2022-12-08T00:19:17.505Z,610.52
2022-12-08T00:19:27.509Z,610.46
2022-12-08T00:19:37.508Z,610.54
2022-12-08T00:19:47.514Z,610.61
2022-12-08T00:19:57.513Z,610.72
2022-12-08T00:20:07.510Z,610.75
2022-12-08T00:20:17.521Z,610.67
2022-12-08T00:20:27.511Z,610.64
2022-12-08T00:20:37.513Z,610.55
2022-12-08T00:20:47.510Z,610.62
2022-12-08T00:20:57.518Z,610.70
2022-12-08T00:21:07.515Z,610.72
2022-12-08T00:21:17.514Z,610.68
2022-12-08T00:21:27.512Z,610.66
2022-12-08T00:21:37.515Z,610.73
2022-12-08T00:21:47.519Z,610.79
2022-12-08T00:21:57.520Z,610.80
2022-12-08T00:22:07.524Z,610.78
2022-12-08T00:22:17.520Z,610.78
2022-12-08T00:22:27.520Z,610.88
2022-12-08T00:22:37.519Z,610.88
2022-12-08T00:22:47.524Z,611.04
2022-12-08T00:22:57.522Z,610.96
2022-12-08T00:23:07.525Z,610.89
2022-12-08T00:23:17.525Z,610.84
2022-12-08T00:23:27.527Z,610.81
2022-12-08T00:23:37.527Z,610.78
2022-12-08T00:23:47.531Z,610.75
2022-12-08T00:23:57.529Z,610.59
2022-12-08T00:24:07.554Z,610.30
2022-12-08T00:24:17.528Z,610.38
2022-12-08T00:24:27.530Z,610.75
2022-12-08T00:24:37.532Z,610.86
2022-12-08T00:24:47.535Z,610.77
2022-12-08T00:24:57.535Z,610.99
2022-12-08T00:25:07.535Z,611.20
2022-12-08T00:25:17.552Z,611.30
2022-12-08T00:25:27.538Z,611.35
2022-12-08T00:25:37.550Z,611.14
2022-12-08T00:25:47.541Z,611.08
2022-12-08T00:25:57.541Z,610.95
2022-12-08T00:26:07.548Z,610.90
2022-12-08T00:26:17.550Z,611.20
2022-12-08T00:26:27.543Z,611.16
2022-12-08T00:26:37.542Z,611.21
2022-12-08T00:26:47.543Z,611.12
2022-12-08T00:26:57.555Z,611.07
2022-12-08T00:27:07.546Z,611.15
2022-12-08T00:27:17.549Z,611.13
2022-12-08T00:27:27.548Z,611.25
2022-12-08T00:27:37.551Z,611.40
2022-12-08T00:27:47.550Z,611.32
2022-12-08T00:27:57.553Z,611.41
2022-12-08T00:28:07.553Z,611.45
2022-12-08T00:28:17.556Z,611.51
2022-12-08T00:28:27.555Z,611.52
2022-12-08T00:28:37.555Z,611.61
2022-12-08T00:28:47.556Z,611.67
2022-12-08T00:28:57.556Z,611.66
2022-12-08T00:29:07.559Z,611.71
2022-12-08T00:29:17.924Z,611.67
2022-12-08T00:29:27.557Z,611.81
2022-12-08T00:29:37.561Z,611.82
2022-12-08T00:29:47.558Z,611.76
2022-12-08T00:29:57.560Z,611.83
2022-12-08T00:30:07.566Z,611.72
2022-12-08T00:30:17.577Z,611.69
2022-12-08T00:30:27.565Z,611.89
2022-12-08T00:30:37.567Z,611.89
2022-12-08T00:30:47.572Z,611.94
2022-12-08T00:30:57.568Z,612.10
2022-12-08T00:31:07.568Z,612.28
2022-12-08T00:31:17.622Z,612.18
2022-12-08T00:31:27.661Z,612.02
2022-12-08T00:31:37.642Z,611.95
2022-12-08T00:31:47.688Z,611.95
2022-12-08T00:31:57.654Z,611.94
2022-12-08T00:32:07.729Z,611.95
2022-12-08T00:32:17.646Z,611.73
2022-12-08T00:32:27.577Z,611.69
2022-12-08T00:32:37.584Z,611.78
2022-12-08T00:32:47.579Z,612.03
2022-12-08T00:32:57.578Z,612.14
2022-12-08T00:33:07.580Z,612.09
2022-12-08T00:33:17.581Z,612.16
2022-12-08T00:33:27.584Z,612.22
2022-12-08T00:33:37.585Z,612.26
2022-12-08T00:33:47.585Z,612.30
2022-12-08T00:33:57.587Z,612.24
2022-12-08T00:34:07.595Z,612.11
2022-12-08T00:34:17.589Z,612.18
2022-12-08T00:34:27.591Z,612.32
2022-12-08T00:34:37.593Z,612.58
2022-12-08T00:34:47.594Z,612.64
2022-12-08T00:34:57.593Z,612.61
2022-12-08T00:35:07.592Z,612.58
2022-12-08T00:35:17.611Z,612.51
2022-12-08T00:35:27.597Z,612.38
2022-12-08T00:35:42.785Z,612.29
2022-12-08T00:35:48.601Z,612.22
2022-12-08T00:35:57.596Z,612.28
2022-12-08T00:36:07.602Z,612.30
2022-12-08T00:36:17.599Z,612.22
2022-12-08T00:36:27.599Z,612.24
2022-12-08T00:36:37.598Z,612.11
2022-12-08T00:36:47.603Z,612.00
2022-12-08T00:36:57.608Z,611.96
2022-12-08T00:37:07.605Z,611.97
2022-12-08T00:37:17.603Z,611.92
2022-12-08T00:37:27.604Z,611.86
2022-12-08T00:37:37.605Z,611.81
2022-12-08T00:37:47.606Z,611.73
2022-12-08T00:38:00.867Z,611.72
2022-12-08T00:38:07.607Z,611.58
2022-12-08T00:38:17.607Z,611.46
2022-12-08T00:38:27.608Z,611.57
2022-12-08T00:38:37.614Z,611.66
2022-12-08T00:38:47.616Z,611.73
2022-12-08T00:38:57.610Z,611.62
2022-12-08T00:39:07.611Z,611.70
2022-12-08T00:39:17.615Z,611.64
2022-12-08T00:39:27.614Z,611.41
2022-12-08T00:39:37.617Z,611.43
2022-12-08T00:39:47.618Z,611.50
2022-12-08T00:39:57.619Z,611.49
2022-12-08T00:40:07.645Z,611.49
2022-12-08T00:40:17.635Z,611.39
2022-12-08T00:40:27.618Z,611.24
2022-12-08T00:40:37.628Z,611.16
2022-12-08T00:40:47.626Z,611.13
2022-12-08T00:40:57.624Z,611.23
2022-12-08T00:41:07.638Z,611.21
2022-12-08T00:41:17.639Z,611.06
2022-12-08T00:41:27.628Z,610.98
2022-12-08T00:41:37.626Z,610.93
2022-12-08T00:41:47.627Z,611.18
2022-12-08T00:41:57.629Z,611.03
2022-12-08T00:42:07.631Z,611.01
2022-12-08T00:42:17.630Z,611.06
2022-12-08T00:42:27.631Z,611.19
2022-12-08T00:42:37.637Z,611.17
2022-12-08T00:42:47.634Z,611.18
2022-12-08T00:42:57.637Z,611.14
2022-12-08T00:43:07.637Z,611.09
2022-12-08T00:43:17.644Z,611.47
2022-12-08T00:43:27.636Z,611.60
2022-12-08T00:43:37.635Z,611.50
2022-12-08T00:43:47.639Z,611.30
2022-12-08T00:43:57.637Z,611.38
2022-12-08T00:44:07.644Z,611.37
2022-12-08T00:44:17.643Z,611.61
2022-12-08T00:44:27.641Z,611.60
2022-12-08T00:44:37.641Z,611.45
2022-12-08T00:44:47.642Z,611.57
2022-12-08T00:44:57.643Z,611.53
2022-12-08T00:45:07.647Z,611.44
2022-12-08T00:45:17.679Z,611.51
2022-12-08T00:45:27.650Z,611.49
2022-12-08T00:45:37.675Z,611.41
2022-12-08T00:45:47.721Z,611.15
2022-12-08T00:45:57.679Z,611.18
2022-12-08T00:46:07.757Z,611.06
2022-12-08T00:46:17.711Z,611.06
2022-12-08T00:46:27.681Z,611.33
2022-12-08T00:46:37.650Z,611.55
2022-12-08T00:46:47.654Z,611.39
2022-12-08T00:46:57.657Z,611.33
2022-12-08T00:47:07.658Z,611.22
2022-12-08T00:47:21.085Z,611.36
2022-12-08T00:47:28.659Z,611.44
2022-12-08T00:47:37.656Z,611.52
2022-12-08T00:47:47.657Z,611.52
2022-12-08T00:47:57.663Z,611.61
2022-12-08T00:48:07.666Z,611.78
2022-12-08T00:48:17.667Z,611.82
2022-12-08T00:48:27.663Z,611.74
2022-12-08T00:48:37.667Z,611.73
2022-12-08T00:48:47.663Z,611.68
2022-12-08T00:48:57.666Z,611.60
2022-12-08T00:49:07.664Z,611.50
2022-12-08T00:49:17.666Z,611.56
2022-12-08T00:49:27.685Z,611.72
2022-12-08T00:49:37.665Z,611.72
2022-12-08T00:49:47.669Z,611.77
2022-12-08T00:49:57.669Z,611.85
2022-12-08T00:50:07.676Z,611.88
2022-12-08T00:50:17.668Z,611.80
2022-12-08T00:50:27.676Z,611.87
2022-12-08T00:50:37.672Z,611.79
2022-12-08T00:50:47.681Z,611.87
2022-12-08T00:50:57.675Z,612.18
2022-12-08T00:51:07.677Z,612.27
2022-12-08T00:51:17.675Z,611.75
2022-12-08T00:51:27.678Z,611.66
2022-12-08T00:51:37.676Z,611.74
2022-12-08T00:51:47.677Z,611.72
2022-12-08T00:51:57.687Z,611.65
2022-12-08T00:52:07.685Z,611.62
2022-12-08T00:52:17.679Z,611.62
2022-12-08T00:52:27.682Z,611.50
2022-12-08T00:52:37.683Z,611.37
2022-12-08T00:52:47.683Z,611.37
2022-12-08T00:52:57.685Z,611.31
2022-12-08T00:53:07.689Z,611.41
2022-12-08T00:53:17.695Z,611.44
2022-12-08T00:53:27.685Z,611.37
2022-12-08T00:53:37.687Z,611.34
2022-12-08T00:53:47.686Z,611.42
2022-12-08T00:53:57.693Z,611.30
2022-12-08T00:54:07.690Z,611.26
2022-12-08T00:54:17.694Z,611.35
2022-12-08T00:54:27.692Z,611.37
2022-12-08T00:54:37.691Z,611.35
2022-12-08T00:54:47.689Z,611.28
2022-12-08T00:54:57.693Z,611.27
2022-12-08T00:55:07.726Z,611.28
2022-12-08T00:55:17.691Z,611.26
2022-12-08T00:55:27.701Z,611.32
2022-12-08T00:55:37.696Z,611.53
2022-12-08T00:55:47.697Z,611.59
2022-12-08T00:55:57.700Z,611.57
2022-12-08T00:56:07.705Z,611.54
2022-12-08T00:56:17.698Z,611.53
2022-12-08T00:56:27.699Z,611.46
2022-12-08T00:56:37.702Z,611.47
2022-12-08T00:56:47.702Z,611.50
2022-12-08T00:56:57.702Z,611.55
2022-12-08T00:57:07.701Z,611.50
2022-12-08T00:57:17.712Z,611.44
2022-12-08T00:57:27.702Z,611.49
2022-12-08T00:57:37.703Z,611.62
2022-12-08T00:57:47.706Z,611.78
2022-12-08T00:57:57.713Z,611.85
2022-12-08T00:58:07.706Z,611.85
2022-12-08T00:58:17.709Z,611.89
2022-12-08T00:58:27.708Z,611.84
2022-12-08T00:58:37.708Z,611.86
2022-12-08T00:58:47.709Z,611.91
2022-12-08T00:58:57.714Z,611.97
2022-12-08T00:59:07.713Z,611.98
2022-12-08T00:59:17.715Z,611.97
2022-12-08T00:59:27.713Z,611.92
2022-12-08T00:59:37.716Z,611.90
2022-12-08T00:59:47.714Z,611.98
2022-12-08T00:59:57.720Z,612.02
2022-12-08T01:00:07.715Z,611.99
2022-12-08T01:00:17.715Z,612.06
2022-12-08T01:00:27.719Z,612.14
2022-12-08T01:00:37.716Z,612.28
2022-12-08T01:00:47.766Z,612.26
2022-12-08T01:00:57.755Z,612.12
2022-12-08T01:01:07.792Z,612.25
2022-12-08T01:01:17.789Z,612.29
2022-12-08T01:01:27.864Z,612.43
2022-12-08T01:01:37.787Z,612.36
2022-12-08T01:01:47.725Z,612.42
2022-12-08T01:01:57.731Z,612.54
2022-12-08T01:02:07.728Z,612.27
2022-12-08T01:02:17.727Z,611.97
2022-12-08T01:02:27.737Z,611.70
2022-12-08T01:02:37.730Z,611.73
2022-12-08T01:02:47.796Z,612.06
2022-12-08T01:02:57.850Z,612.21
2022-12-08T01:03:07.770Z,612.13
2022-12-08T01:03:17.793Z,612.13
2022-12-08T01:03:27.818Z,612.25
2022-12-08T01:03:37.785Z,612.33
2022-12-08T01:03:47.811Z,612.36
2022-12-08T01:03:57.741Z,612.46
2022-12-08T01:04:07.745Z,612.43
2022-12-08T01:04:17.740Z,612.39
2022-12-08T01:04:27.743Z,612.29
2022-12-08T01:04:37.747Z,612.18
2022-12-08T01:04:47.747Z,612.15
2022-12-08T01:04:57.745Z,612.26
2022-12-08T01:05:07.750Z,612.19
2022-12-08T01:05:17.748Z,612.21
2022-12-08T01:05:27.751Z,612.23
2022-12-08T01:05:37.753Z,612.27
2022-12-08T01:05:47.751Z,612.21
2022-12-08T01:05:57.757Z,612.15
2022-12-08T01:06:07.753Z,611.97
2022-12-08T01:06:17.751Z,612.09
2022-12-08T01:06:27.756Z,612.32
2022-12-08T01:06:37.756Z,612.61
2022-12-08T01:06:47.755Z,612.74
2022-12-08T01:06:57.789Z,612.74
2022-12-08T01:07:07.758Z,612.76
2022-12-08T01:07:17.760Z,612.80
2022-12-08T01:07:27.765Z,612.85
2022-12-08T01:07:37.809Z,612.76
2022-12-08T01:07:47.807Z,612.81
2022-12-08T01:07:57.799Z,612.87
2022-12-08T01:08:07.819Z,612.66
2022-12-08T01:08:17.824Z,612.74
2022-12-08T01:08:27.846Z,612.73
2022-12-08T01:08:37.766Z,612.75
2022-12-08T01:08:47.770Z,612.70
2022-12-08T01:08:57.767Z,612.63
2022-12-08T01:09:07.769Z,612.57
2022-12-08T01:09:17.784Z,612.63
2022-12-08T01:09:27.770Z,612.92
2022-12-08T01:09:37.772Z,613.03
2022-12-08T01:09:47.773Z,613.11
2022-12-08T01:09:57.778Z,612.89
2022-12-08T01:10:07.779Z,612.88
2022-12-08T01:10:17.774Z,612.81
2022-12-08T01:10:27.781Z,612.80
2022-12-08T01:10:37.777Z,612.80
2022-12-08T01:10:47.792Z,612.58
2022-12-08T01:10:57.780Z,612.70
2022-12-08T01:11:07.780Z,612.76
2022-12-08T01:11:17.782Z,612.69
2022-12-08T01:11:27.782Z,612.50
2022-12-08T01:11:37.783Z,612.54
2022-12-08T01:11:47.787Z,612.49
2022-12-08T01:11:57.786Z,612.51
2022-12-08T01:12:07.788Z,612.57
2022-12-08T01:12:17.788Z,612.58
2022-12-08T01:12:27.789Z,612.55
2022-12-08T01:12:37.793Z,612.54
2022-12-08T01:12:47.792Z,612.60
2022-12-08T01:12:57.792Z,612.70
2022-12-08T01:13:07.799Z,612.70
2022-12-08T01:13:17.798Z,612.63
2022-12-08T01:13:27.803Z,612.53
2022-12-08T01:13:37.799Z,612.35
2022-12-08T01:13:47.801Z,612.31
2022-12-08T01:13:57.802Z,612.25
2022-12-08T01:14:07.817Z,612.19
2022-12-08T01:14:17.804Z,612.13
2022-12-08T01:14:27.807Z,612.08
2022-12-08T01:14:37.804Z,612.11
2022-12-08T01:14:47.831Z,612.07
2022-12-08T01:15:02.100Z,611.99
2022-12-08T01:15:07.804Z,611.90
2022-12-08T01:15:17.807Z,611.95
2022-12-08T01:15:27.839Z,611.99
2022-12-08T01:15:37.806Z,612.07
2022-12-08T01:15:47.814Z,612.17
2022-12-08T01:15:57.809Z,612.15
2022-12-08T01:16:07.813Z,612.14
2022-12-08T01:16:17.872Z,612.13
2022-12-08T01:16:27.856Z,612.24
2022-12-08T01:16:37.844Z,612.54
2022-12-08T01:16:47.871Z,612.58
2022-12-08T01:16:57.872Z,612.52
2022-12-08T01:17:07.817Z,612.44
2022-12-08T01:17:17.818Z,612.33
2022-12-08T01:17:27.818Z,612.27
2022-12-08T01:17:37.822Z,612.35
2022-12-08T01:17:47.856Z,612.27
2022-12-08T01:17:57.822Z,612.24
2022-12-08T01:18:07.821Z,612.19
2022-12-08T01:18:17.824Z,612.22
2022-12-08T01:18:27.826Z,612.31
2022-12-08T01:18:37.826Z,612.29
2022-12-08T01:18:47.829Z,612.15
2022-12-08T01:18:57.833Z,612.11
2022-12-08T01:19:07.831Z,612.05
2022-12-08T01:19:17.829Z,612.12
2022-12-08T01:19:27.836Z,612.31
2022-12-08T01:19:37.836Z,612.37
2022-12-08T01:19:47.830Z,612.32
2022-12-08T01:19:57.840Z,612.40
2022-12-08T01:20:07.838Z,612.49
2022-12-08T01:20:17.815Z,612.35
2022-12-08T01:20:27.832Z,612.33
2022-12-08T01:20:37.839Z,612.24
2022-12-08T01:20:47.838Z,612.24
2022-12-08T01:20:57.838Z,612.13
2022-12-08T01:21:07.839Z,611.97
2022-12-08T01:21:17.842Z,611.86
2022-12-08T01:21:27.841Z,611.81
2022-12-08T01:21:37.843Z,612.09
2022-12-08T01:21:47.855Z,612.27
2022-12-08T01:21:57.845Z,612.22
2022-12-08T01:22:07.844Z,612.33
2022-12-08T01:22:17.850Z,612.38
2022-12-08T01:22:27.847Z,612.40
2022-12-08T01:22:37.853Z,612.34
2022-12-08T01:22:47.848Z,612.18
2022-12-08T01:22:57.849Z,612.04
2022-12-08T01:23:07.856Z,611.97
2022-12-08T01:23:17.854Z,611.89
2022-12-08T01:23:27.857Z,611.94
2022-12-08T01:23:37.858Z,612.10
2022-12-08T01:23:47.858Z,612.19
2022-12-08T01:23:57.861Z,611.92
2022-12-08T01:24:07.859Z,611.83
2022-12-08T01:24:17.859Z,612.15
2022-12-08T01:24:27.861Z,612.22
2022-12-08T01:24:37.860Z,611.98
2022-12-08T01:24:47.864Z,611.80
2022-12-08T01:24:57.879Z,611.99
2022-12-08T01:25:07.869Z,612.24
2022-12-08T01:25:17.869Z,612.29
2022-12-08T01:25:27.867Z,612.06
2022-12-08T01:25:37.869Z,612.49
2022-12-08T01:25:47.873Z,612.47
2022-12-08T01:25:57.868Z,612.33
2022-12-08T01:26:07.871Z,612.10
2022-12-08T01:26:17.872Z,611.92
2022-12-08T01:26:27.870Z,611.90
2022-12-08T01:26:37.874Z,611.91
2022-12-08T01:26:47.876Z,611.90
2022-12-08T01:26:57.875Z,612.04
2022-12-08T01:27:07.874Z,612.07
2022-12-08T01:27:17.876Z,611.99
2022-12-08T01:27:27.876Z,612.02
2022-12-08T01:27:37.879Z,612.11
2022-12-08T01:27:47.879Z,612.06
2022-12-08T01:27:57.892Z,611.97
2022-12-08T01:28:07.863Z,611.90
2022-12-08T01:28:17.882Z,611.80
2022-12-08T01:28:27.889Z,611.71
2022-12-08T01:28:37.886Z,611.72
2022-12-08T01:28:47.884Z,611.93
2022-12-08T01:28:57.888Z,612.10
2022-12-08T01:29:07.888Z,612.20
2022-12-08T01:29:17.891Z,612.09
2022-12-08T01:29:27.894Z,611.91
2022-12-08T01:29:37.889Z,611.72
2022-12-08T01:29:47.891Z,611.88
2022-12-08T01:29:57.903Z,611.93
2022-12-08T01:30:07.896Z,611.97
2022-12-08T01:30:17.894Z,612.23
2022-12-08T01:30:27.958Z,612.28
2022-12-08T01:30:37.912Z,612.19
2022-12-08T01:30:47.936Z,612.05
2022-12-08T01:30:57.928Z,611.87
2022-12-08T01:31:07.954Z,611.99
2022-12-08T01:31:17.937Z,612.04
2022-12-08T01:31:27.988Z,612.21
2022-12-08T01:31:37.899Z,612.52
2022-12-08T01:31:47.901Z,612.70
2022-12-08T01:31:57.902Z,612.74
2022-12-08T01:32:07.904Z,612.71
2022-12-08T01:32:17.903Z,612.65
2022-12-08T01:32:27.905Z,612.57
2022-12-08T01:32:37.907Z,612.58
2022-12-08T01:32:47.922Z,612.46
2022-12-08T01:32:57.908Z,612.39
2022-12-08T01:33:07.907Z,612.39
2022-12-08T01:33:17.911Z,612.32
2022-12-08T01:33:27.912Z,612.35
2022-12-08T01:33:37.917Z,612.33
2022-12-08T01:33:47.919Z,612.31
2022-12-08T01:33:57.917Z,612.19
2022-12-08T01:34:07.919Z,612.10
2022-12-08T01:34:17.924Z,612.05
2022-12-08T01:34:27.924Z,612.17
2022-12-08T01:34:37.922Z,612.34
2022-12-08T01:34:47.920Z,612.42
2022-12-08T01:34:57.938Z,612.47
2022-12-08T01:35:07.925Z,612.25
2022-12-08T01:35:17.922Z,612.02
2022-12-08T01:35:27.937Z,611.92
2022-12-08T01:35:37.931Z,611.58
2022-12-08T01:35:47.926Z,611.67
2022-12-08T01:35:57.924Z,611.87
2022-12-08T01:36:07.927Z,612.05
2022-12-08T01:36:17.926Z,612.21
2022-12-08T01:36:27.928Z,612.21
2022-12-08T01:36:37.928Z,612.30
2022-12-08T01:36:47.932Z,612.28
2022-12-08T01:36:57.951Z,612.22
2022-12-08T01:37:07.933Z,612.12
2022-12-08T01:37:17.934Z,612.05
2022-12-08T01:37:27.944Z,612.11
2022-12-08T01:37:37.937Z,612.23
2022-12-08T01:37:47.938Z,612.34
2022-12-08T01:37:57.940Z,612.54
2022-12-08T01:38:07.958Z,612.69
2022-12-08T01:38:17.943Z,612.69
2022-12-08T01:38:27.941Z,612.61
2022-12-08T01:38:37.944Z,612.52
2022-12-08T01:38:47.946Z,612.51
2022-12-08T01:38:57.947Z,612.52
2022-12-08T01:39:07.976Z,612.46
2022-12-08T01:39:17.947Z,612.39
2022-12-08T01:39:27.947Z,612.27
2022-12-08T01:39:37.948Z,612.32
2022-12-08T01:39:47.952Z,612.28
2022-12-08T01:39:57.947Z,612.11
2022-12-08T01:40:07.985Z,612.10
2022-12-08T01:40:17.950Z,612.10
2022-12-08T01:40:27.953Z,612.14
2022-12-08T01:40:37.956Z,612.04
2022-12-08T01:40:47.957Z,612.28
2022-12-08T01:40:57.954Z,612.50
2022-12-08T01:41:07.954Z,612.58
2022-12-08T01:41:17.956Z,612.48
2022-12-08T01:41:27.939Z,612.48
2022-12-08T01:41:37.972Z,612.43
2022-12-08T01:41:47.961Z,612.54
2022-12-08T01:41:57.959Z,612.71
2022-12-08T01:42:07.978Z,612.86
2022-12-08T01:42:17.961Z,612.83
2022-12-08T01:42:27.967Z,612.69
2022-12-08T01:42:37.961Z,612.63
2022-12-08T01:42:47.962Z,612.73
2022-12-08T01:42:57.967Z,612.72
2022-12-08T01:43:07.973Z,612.72
2022-12-08T01:43:17.967Z,612.79
2022-12-08T01:43:27.972Z,612.60
2022-12-08T01:43:37.955Z,612.60
2022-12-08T01:43:47.973Z,612.55
2022-12-08T01:43:57.971Z,612.46
2022-12-08T01:44:07.988Z,612.34
2022-12-08T01:44:17.975Z,612.15
2022-12-08T01:44:27.978Z,612.41
2022-12-08T01:44:37.975Z,612.69
2022-12-08T01:44:47.976Z,612.88
2022-12-08T01:44:57.976Z,612.87
2022-12-08T01:45:07.981Z,612.78
2022-12-08T01:45:17.982Z,612.75
2022-12-08T01:45:27.981Z,612.56
2022-12-08T01:45:37.983Z,612.55
2022-12-08T01:45:48.059Z,612.50
2022-12-08T01:45:58.011Z,612.50
2022-12-08T01:46:08.025Z,612.21
2022-12-08T01:46:18.023Z,612.10
2022-12-08T01:46:28.080Z,612.10
2022-12-08T01:46:38.090Z,612.56
2022-12-08T01:46:47.986Z,612.67
2022-12-08T01:46:57.987Z,612.48
2022-12-08T01:47:07.991Z,612.53
2022-12-08T01:47:17.994Z,612.48
2022-12-08T01:47:28.105Z,612.42
2022-12-08T01:47:38.048Z,612.27
2022-12-08T01:47:48.066Z,612.12
2022-12-08T01:47:58.089Z,612.14
2022-12-08T01:48:08.098Z,612.10
2022-12-08T01:48:18.103Z,612.18
2022-12-08T01:48:28.040Z,612.37
2022-12-08T01:48:38.007Z,612.47
2022-12-08T01:48:47.997Z,612.49
2022-12-08T01:48:58.000Z,612.52
2022-12-08T01:49:07.999Z,612.57
2022-12-08T01:49:18.006Z,612.59
2022-12-08T01:49:28.006Z,612.67
2022-12-08T01:49:38.008Z,612.63
2022-12-08T01:49:48.004Z,612.55
2022-12-08T01:49:58.007Z,612.52
2022-12-08T01:50:08.005Z,612.47
2022-12-08T01:50:18.011Z,612.49
2022-12-08T01:50:28.017Z,612.48
2022-12-08T01:50:38.023Z,612.51
2022-12-08T01:50:48.010Z,612.58
2022-12-08T01:50:58.012Z,612.56
2022-12-08T01:51:08.011Z,612.51
2022-12-08T01:51:18.012Z,612.49
2022-12-08T01:51:28.014Z,612.46
2022-12-08T01:51:38.014Z,612.50
2022-12-08T01:51:48.018Z,612.58
2022-12-08T01:51:58.021Z,612.63
2022-12-08T01:52:08.023Z,612.65
2022-12-08T01:52:18.021Z,612.60
2022-12-08T01:52:28.022Z,612.53
2022-12-08T01:52:38.026Z,612.54
2022-12-08T01:52:48.028Z,612.44
2022-12-08T01:52:58.025Z,612.30
2022-12-08T01:53:08.032Z,612.24
2022-12-08T01:53:18.026Z,612.59
2022-12-08T01:53:28.031Z,612.92
2022-12-08T01:53:38.030Z,612.77
2022-12-08T01:53:48.034Z,612.56
2022-12-08T01:53:58.033Z,612.26
2022-12-08T01:54:08.043Z,612.18
2022-12-08T01:54:18.034Z,612.60
2022-12-08T01:54:28.037Z,613.35
2022-12-08T01:54:38.035Z,613.45
2022-12-08T01:54:48.036Z,613.26
2022-12-08T01:54:58.035Z,612.87
2022-12-08T01:55:08.038Z,612.76
2022-12-08T01:55:18.050Z,612.65
2022-12-08T01:55:28.044Z,612.53
2022-12-08T01:55:38.053Z,612.32
2022-12-08T01:55:48.041Z,612.35
2022-12-08T01:55:58.045Z,612.38
2022-12-08T01:56:08.049Z,612.42
2022-12-08T01:56:18.053Z,612.41
2022-12-08T01:56:28.045Z,612.46
2022-12-08T01:56:38.044Z,612.57
2022-12-08T01:56:48.050Z,612.63
2022-12-08T01:56:58.050Z,612.87
2022-12-08T01:57:08.047Z,613.00
2022-12-08T01:57:18.063Z,613.01
2022-12-08T01:57:28.056Z,612.95
2022-12-08T01:57:38.051Z,612.85
2022-12-08T01:57:48.053Z,612.91
2022-12-08T01:57:58.055Z,612.88
2022-12-08T01:58:08.055Z,612.85
2022-12-08T01:58:18.108Z,612.82
2022-12-08T01:58:28.058Z,612.77
2022-12-08T01:58:38.055Z,612.70
2022-12-08T01:58:48.063Z,612.70
2022-12-08T01:58:58.059Z,612.65
2022-12-08T01:59:08.062Z,612.67
2022-12-08T01:59:18.071Z,612.70
2022-12-08T01:59:28.066Z,612.66
2022-12-08T01:59:38.062Z,612.50
2022-12-08T01:59:48.066Z,612.41
2022-12-08T01:59:58.064Z,612.52
2022-12-08T02:00:08.446Z,612.70
2022-12-08T02:00:18.073Z,612.54
2022-12-08T02:00:28.076Z,612.43
2022-12-08T02:00:38.081Z,612.54
2022-12-08T02:00:48.076Z,612.49
2022-12-08T02:00:58.137Z,612.54
2022-12-08T02:01:08.122Z,612.67
2022-12-08T02:01:18.140Z,612.65
2022-12-08T02:01:28.113Z,612.63
2022-12-08T02:01:38.143Z,612.54
2022-12-08T02:01:48.125Z,612.72
2022-12-08T02:01:58.080Z,612.72
2022-12-08T02:02:08.144Z,612.60
2022-12-08T02:02:18.165Z,612.58
2022-12-08T02:02:28.113Z,612.77
2022-12-08T02:02:38.169Z,612.85
2022-12-08T02:02:48.189Z,612.77
2022-12-08T02:02:58.156Z,612.93
2022-12-08T02:03:08.090Z,612.91
2022-12-08T02:03:18.090Z,612.98
2022-12-08T02:03:28.096Z,613.15
2022-12-08T02:03:38.099Z,613.19
2022-12-08T02:03:48.093Z,613.20
2022-12-08T02:03:58.092Z,613.24
2022-12-08T02:04:08.100Z,613.09
2022-12-08T02:04:18.102Z,613.12
2022-12-08T02:04:28.100Z,613.07
2022-12-08T02:04:38.101Z,613.02
2022-12-08T02:04:48.112Z,612.84